Time;durP1;ratioP1;P1;durP2;ratioP2;P2;SDS_P1;SDS_P2;PMS_P1;PMS_P2;Temp;Humidity;BMP_temperature;BMP_pressure;BME280_temperature;BME280_humidity;BME280_pressure;Samples;Min_cycle;Max_cycle;Signal;HPM_P1;HPM_P2
2022/05/17 00:04:21;;;;;;;8.48;3.15;;;19.00;85.70;;;;;;10536762;28;20037;-65
2022/05/17 00:09:21;;;;;;;4.65;3.13;;;19.00;85.70;;;;;;10536599;28;20036;-67
2022/05/17 00:14:22;;;;;;;4.72;2.33;;;18.90;85.80;;;;;;10536465;28;20392;-65
2022/05/17 00:19:23;;;;;;;7.25;2.80;;;18.90;85.80;;;;;;10536427;28;20625;-59
2022/05/17 00:24:26;;;;;;;5.10;2.85;;;18.90;85.90;;;;;;10536090;28;20036;-66
2022/05/17 00:29:26;;;;;;;4.10;2.42;;;18.80;85.90;;;;;;10536033;28;20473;-63
2022/05/17 00:34:27;;;;;;;6.25;2.65;;;18.90;86.00;;;;;;10536000;28;20036;-65
2022/05/17 00:39:28;;;;;;;5.38;2.50;;;18.80;85.90;;;;;;10535930;28;20043;-66
2022/05/17 00:44:44;;;;;;;4.10;2.55;;;18.80;86.50;;;;;;10535804;28;20043;-66
2022/05/17 00:49:58;;;;;;;7.32;3.10;;;18.80;86.00;;;;;;10535776;28;20412;-63
2022/05/17 00:55:05;;;;;;;5.22;2.30;;;18.70;86.10;;;;;;10535642;28;20028;-62
2022/05/17 01:00:12;;;;;;;6.40;2.97;;;18.70;86.10;;;;;;10535271;28;20055;-66
2022/05/17 01:05:14;;;;;;;7.50;2.60;;;18.70;86.10;;;;;;10536643;28;20391;-68
2022/05/17 01:10:14;;;;;;;7.97;2.85;;;18.70;86.10;;;;;;10543483;28;20514;-69
2022/05/17 01:15:15;;;;;;;6.50;3.83;;;18.70;86.10;;;;;;10543319;28;20166;-60
2022/05/17 01:20:16;;;;;;;7.93;2.90;;;18.60;86.10;;;;;;10543056;28;20043;-66
2022/05/17 01:25:16;;;;;;;9.55;2.65;;;18.60;86.20;;;;;;10542949;28;20028;-63
2022/05/17 01:30:23;;;;;;;7.03;2.75;;;18.60;86.20;;;;;;10542668;28;20048;-67
2022/05/17 01:35:24;;;;;;;6.43;2.30;;;18.60;86.20;;;;;;10542334;28;20031;-69
2022/05/17 01:40:26;;;;;;;4.78;2.72;;;18.60;86.20;;;;;;10542430;28;20054;-69
2022/05/17 01:45:27;;;;;;;5.75;2.70;;;18.50;86.80;;;;;;10542061;28;20035;-68
2022/05/17 01:50:28;;;;;;;7.88;2.75;;;18.50;86.20;;;;;;10541782;28;20036;-66
2022/05/17 01:55:29;;;;;;;9.57;2.72;;;18.50;86.20;;;;;;10541457;28;20430;-58
2022/05/17 02:00:30;;;;;;;5.00;2.70;;;18.40;86.20;;;;;;10541643;28;20063;-68
2022/05/17 02:05:32;;;;;;;7.30;2.70;;;18.40;86.20;;;;;;10541295;28;20040;-68
2022/05/17 02:10:33;;;;;;;9.00;2.80;;;18.40;86.30;;;;;;10540999;28;20060;-64
2022/05/17 02:15:33;;;;;;;6.00;2.53;;;18.40;86.30;;;;;;10541041;28;20029;-61
2022/05/17 02:20:35;;;;;;;6.03;2.78;;;18.30;86.30;;;;;;10539633;28;20036;-61
2022/05/17 02:25:36;;;;;;;4.60;3.08;;;18.30;86.40;;;;;;10540584;28;20032;-61
2022/05/17 02:30:41;;;;;;;7.13;3.20;;;18.30;86.40;;;;;;10540291;28;20439;-60
2022/05/17 02:35:43;;;;;;;4.78;2.80;;;18.30;86.40;;;;;;10540013;28;20028;-65
2022/05/17 02:40:44;;;;;;;5.32;2.88;;;18.30;86.40;;;;;;10539861;28;20059;-57
2022/05/17 02:45:45;;;;;;;6.38;3.05;;;18.30;86.40;;;;;;10539772;28;20039;-68
2022/05/17 02:50:45;;;;;;;6.38;3.08;;;18.20;86.40;;;;;;10539677;28;20052;-68
2022/05/17 02:55:46;;;;;;;4.93;2.88;;;18.20;86.40;;;;;;10539375;28;20052;-69
2022/05/17 03:00:47;;;;;;;6.10;2.88;;;18.20;86.40;;;;;;10539255;28;20742;-64
2022/05/17 03:05:47;;;;;;;7.70;2.90;;;18.20;86.40;;;;;;10539025;28;20469;-67
2022/05/17 03:10:48;;;;;;;6.45;3.08;;;18.10;86.40;;;;;;10538769;28;20044;-68
2022/05/17 03:15:52;;;;;;;7.65;2.70;;;18.10;86.40;;;;;;10538437;28;20040;-69
2022/05/17 03:20:53;;;;;;;5.47;2.80;;;18.10;86.50;;;;;;10538458;28;20048;-66
2022/05/17 03:25:54;;;;;;;5.00;3.20;;;18.10;86.50;;;;;;10538349;28;20043;-69
2022/05/17 03:30:54;;;;;;;7.50;2.92;;;18.10;86.60;;;;;;10537742;28;20056;-66
2022/05/17 03:35:55;;;;;;;7.35;3.10;;;18.10;86.60;;;;;;10537726;28;20531;-69
2022/05/17 03:40:58;;;;;;;6.82;2.70;;;18.00;86.60;;;;;;10537793;28;20040;-69
2022/05/17 03:45:59;;;;;;;5.70;2.95;;;18.00;86.70;;;;;;10537350;28;20086;-67
2022/05/17 03:50:59;;;;;;;4.25;2.22;;;18.00;86.70;;;;;;10537169;28;21186;-70
2022/05/17 03:56:00;;;;;;;6.55;2.67;;;18.00;86.70;;;;;;10534648;28;20031;-64
2022/05/17 04:01:01;;;;;;;8.18;3.30;;;17.90;86.60;;;;;;10536984;28;20119;-68
2022/05/17 04:06:02;;;;;;;6.13;3.05;;;18.00;86.70;;;;;;10536851;28;20533;-69
2022/05/17 04:11:04;;;;;;;4.72;2.50;;;17.90;86.60;;;;;;10536434;28;20139;-66
2022/05/17 04:16:05;;;;;;;4.97;2.33;;;17.90;86.70;;;;;;10536662;28;20048;-69
2022/05/17 04:21:06;;;;;;;5.28;2.70;;;17.90;86.70;;;;;;10536100;28;20044;-68
2022/05/17 04:26:07;;;;;;;6.30;2.65;;;17.90;86.70;;;;;;10536274;28;20382;-68
2022/05/17 04:31:08;;;;;;;12.48;3.78;;;17.90;86.70;;;;;;10536055;28;20044;-57
2022/05/17 04:36:09;;;;;;;5.45;2.45;;;17.90;86.70;;;;;;10536086;28;20028;-67
2022/05/17 04:41:10;;;;;;;6.85;2.70;;;17.90;86.70;;;;;;10538742;28;20032;-65
2022/05/17 04:46:11;;;;;;;5.75;2.85;;;17.90;86.60;;;;;;10544446;28;20111;-64
2022/05/17 04:51:12;;;;;;;5.28;2.33;;;17.90;86.60;;;;;;10544157;28;20135;-62
2022/05/17 04:56:13;;;;;;;5.35;2.65;;;17.90;86.60;;;;;;10544144;28;20042;-57
2022/05/17 05:01:14;;;;;;;7.82;2.55;;;17.90;86.60;;;;;;10543791;28;20575;-65
2022/05/17 05:06:14;;;;;;;5.70;3.00;;;17.90;86.90;;;;;;10543743;28;20395;-61
2022/05/17 05:11:15;;;;;;;4.45;2.75;;;17.90;86.60;;;;;;10543498;28;20044;-58
2022/05/17 05:16:16;;;;;;;4.53;2.63;;;18.00;86.70;;;;;;10542170;28;20043;-58
2022/05/17 05:21:17;;;;;;;6.13;2.60;;;17.90;86.60;;;;;;10543478;28;20492;-56
2022/05/17 05:26:17;;;;;;;5.07;2.15;;;17.90;86.90;;;;;;10542769;28;20067;-64
2022/05/17 05:31:18;;;;;;;6.13;2.30;;;17.90;86.90;;;;;;10542604;28;20043;-63
2022/05/17 05:36:19;;;;;;;3.85;2.38;;;17.90;86.90;;;;;;10542393;28;20032;-66
2022/05/17 05:41:20;;;;;;;4.10;2.10;;;17.90;87.00;;;;;;10542204;28;20059;-67
2022/05/17 05:46:20;;;;;;;4.78;2.75;;;17.90;87.00;;;;;;10542486;28;20036;-65
2022/05/17 05:51:21;;;;;;;6.90;2.65;;;17.90;87.00;;;;;;10540211;28;20404;-59
2022/05/17 05:56:23;;;;;;;3.95;2.40;;;17.90;87.00;;;;;;10541525;28;20426;-66
2022/05/17 06:01:24;;;;;;;4.38;2.22;;;17.90;87.00;;;;;;10541427;28;20499;-64
2022/05/17 06:06:24;;;;;;;6.57;3.30;;;17.90;87.00;;;;;;10541319;28;20067;-68
2022/05/17 06:11:25;;;;;;;10.07;3.70;;;17.90;87.70;;;;;;10540934;28;20067;-64
2022/05/17 06:16:26;;;;;;;9.85;3.50;;;17.70;88.70;;;;;;10540765;28;20106;-61
2022/05/17 06:21:26;;;;;;;11.85;3.38;;;17.70;89.90;;;;;;10540791;28;20039;-72
2022/05/17 06:26:27;;;;;;;7.10;3.15;;;17.70;90.10;;;;;;10540637;28;20036;-60
2022/05/17 06:31:28;;;;;;;9.32;3.25;;;17.70;90.00;;;;;;10540321;28;20044;-73
2022/05/17 06:36:28;;;;;;;8.27;2.95;;;17.80;90.00;;;;;;10540370;28;20044;-62
2022/05/17 06:41:29;;;;;;;4.47;2.47;;;17.80;90.00;;;;;;10540030;28;20082;-58
2022/05/17 06:46:30;;;;;;;7.00;2.58;;;17.90;90.00;;;;;;10539934;28;20032;-65
2022/05/17 06:51:31;;;;;;;4.95;2.38;;;17.90;89.90;;;;;;10539396;28;20054;-60
2022/05/17 06:56:33;;;;;;;6.75;2.70;;;17.90;89.70;;;;;;10538432;28;20055;-66
2022/05/17 07:01:34;;;;;;;7.05;2.50;;;18.00;89.80;;;;;;10538935;28;20051;-68
2022/05/17 07:06:34;;;;;;;7.18;2.90;;;18.00;89.60;;;;;;10538314;28;20107;-57
2022/05/17 07:16:54;;;;;;;5.63;2.30;;;18.10;89.30;;;;;;10538613;28;20485;-67
2022/05/17 07:21:55;;;;;;;4.13;2.30;;;18.10;89.10;;;;;;10538531;28;20089;-75
2022/05/17 07:26:56;;;;;;;6.95;2.47;;;18.20;89.30;;;;;;10538105;28;20032;-61
2022/05/17 07:31:57;;;;;;;5.28;2.42;;;18.20;89.60;;;;;;10538348;28;20056;-66
2022/05/17 07:36:57;;;;;;;5.95;2.50;;;18.10;90.00;;;;;;10542261;28;20124;-80
2022/05/17 07:41:58;;;;;;;10.68;2.97;;;18.10;90.20;;;;;;10561187;28;20040;-69
2022/05/17 07:46:59;;;;;;;5.55;2.40;;;18.20;90.30;;;;;;10548855;28;20063;-72
2022/05/17 07:52:00;;;;;;;7.90;2.92;;;18.30;90.30;;;;;;10541279;28;20047;-77
2022/05/17 07:57:01;;;;;;;8.45;2.72;;;18.30;90.30;;;;;;10539653;28;20078;-67
2022/05/17 08:02:01;;;;;;;6.53;2.70;;;18.40;90.50;;;;;;10543695;28;20476;-73
2022/05/17 08:07:02;;;;;;;9.93;2.70;;;18.60;90.40;;;;;;10542171;28;20394;-70
2022/05/17 08:12:07;;;;;;;6.57;2.70;;;18.70;90.30;;;;;;10546894;28;20531;-63
2022/05/17 08:17:08;;;;;;;9.45;2.22;;;18.80;90.20;;;;;;10542436;28;20078;-64
2022/05/17 08:22:13;;;;;;;7.65;1.88;;;18.80;90.20;;;;;;10536758;28;20040;-74
2022/05/17 08:27:32;;;;;;;5.10;2.13;;;18.90;90.10;;;;;;10540050;28;20032;-71
2022/05/17 08:37:52;;;;;;;8.77;1.92;;;19.00;89.90;;;;;;10547406;28;20050;-74
2022/05/17 08:43:16;;;;;;;8.75;1.85;;;19.10;89.40;;;;;;10536199;28;20181;-72
2022/05/17 08:48:18;;;;;;;9.20;2.53;;;19.20;88.60;;;;;;10532565;28;20031;-65
2022/05/17 08:53:19;;;;;;;8.25;2.13;;;19.30;87.90;;;;;;10536211;28;20037;-75
2022/05/17 08:58:25;;;;;;;8.25;2.33;;;19.50;87.60;;;;;;10535378;28;20127;-72
2022/05/17 09:03:35;;;;;;;7.88;2.28;;;19.50;87.00;;;;;;10535954;28;20119;-75
2022/05/17 09:08:52;;;;;;;8.95;1.85;;;19.50;87.20;;;;;;10535582;28;20071;-73
2022/05/17 09:14:16;;;;;;;7.35;1.85;;;19.60;86.90;;;;;;10535306;28;20105;-73
2022/05/17 09:19:16;;;;;;;9.75;2.17;;;19.60;86.30;;;;;;10535677;28;20028;-73
2022/05/17 09:24:19;;;;;;;7.70;2.10;;;19.60;86.40;;;;;;10543095;28;20028;-78
2022/05/17 09:29:22;;;;;;;4.88;1.95;;;19.60;86.70;;;;;;10544658;28;20028;-75
2022/05/17 09:34:34;;;;;;;6.72;2.50;;;19.50;86.70;;;;;;10559632;28;20044;-76
2022/05/17 09:39:35;;;;;;;9.98;2.35;;;19.60;86.90;;;;;;10570458;28;20031;-76
2022/05/17 09:44:43;;;;;;;8.43;1.80;;;19.60;86.60;;;;;;10567142;28;20048;-75
2022/05/17 09:55:12;;;;;;;9.93;2.05;;;19.80;86.30;;;;;;10571147;28;20102;-65
2022/05/17 10:00:13;;;;;;;10.82;2.40;;;19.80;86.40;;;;;;10567375;28;20039;-79
2022/05/17 10:05:25;;;;;;;8.07;2.17;;;19.70;86.80;;;;;;10560787;28;20036;-75
2022/05/17 10:10:29;;;;;;;7.88;2.28;;;19.70;87.20;;;;;;10563033;28;20097;-68
2022/05/17 10:15:33;;;;;;;7.63;2.45;;;19.70;87.20;;;;;;10557732;28;20043;-73
2022/05/17 10:20:41;;;;;;;6.47;2.25;;;19.80;87.20;;;;;;10559432;28;20054;-68
2022/05/17 10:25:51;;;;;;;7.72;2.40;;;20.00;87.10;;;;;;10563065;28;20032;-71
2022/05/17 10:31:01;;;;;;;12.02;2.70;;;20.10;86.70;;;;;;10540453;28;20039;-77
2022/05/17 10:36:08;;;;;;;6.38;2.58;;;20.20;86.50;;;;;;10540951;28;20043;-78
2022/05/17 10:41:12;;;;;;;8.63;2.63;;;20.30;86.20;;;;;;10539350;28;20146;-65
2022/05/17 10:46:20;;;;;;;6.25;2.70;;;20.20;86.00;;;;;;10540033;28;20028;-77
2022/05/17 10:51:34;;;;;;;8.38;2.58;;;20.20;86.10;;;;;;10539690;28;20515;-71
2022/05/17 10:56:58;;;;;;;6.90;2.35;;;20.20;86.00;;;;;;10539448;28;20052;-69
2022/05/17 11:02:22;;;;;;;8.48;2.75;;;20.20;86.00;;;;;;10539155;28;20032;-73
2022/05/17 11:07:29;;;;;;;8.93;3.13;;;20.30;85.80;;;;;;10539070;28;20350;-65
2022/05/17 11:12:38;;;;;;;11.35;3.72;;;20.20;85.60;;;;;;10538740;28;20174;-68
2022/05/17 11:17:54;;;;;;;10.27;2.47;;;20.20;85.70;;;;;;10538645;28;20028;-69
2022/05/17 11:23:01;;;;;;;5.35;1.60;;;20.10;85.60;;;;;;10538564;28;20089;-67
2022/05/17 11:28:17;;;;;;;5.43;1.60;;;20.00;85.80;;;;;;10538166;28;20414;-71
2022/05/17 11:33:29;;;;;;;8.10;1.63;;;20.00;85.80;;;;;;10537890;28;20125;-62
2022/05/17 11:38:32;;;;;;;5.22;1.63;;;19.90;86.00;;;;;;10537779;28;20272;-65
2022/05/17 11:43:54;;;;;;;4.55;1.83;;;19.80;86.10;;;;;;10537467;28;20024;-63
2022/05/17 11:49:00;;;;;;;4.40;1.70;;;19.80;86.10;;;;;;10537423;28;20073;-71
2022/05/17 11:54:03;;;;;;;6.80;2.10;;;19.80;86.30;;;;;;10537324;28;20032;-72
2022/05/17 11:59:12;;;;;;;4.85;1.80;;;19.80;86.30;;;;;;10536962;28;20059;-71
2022/05/17 12:04:22;;;;;;;7.20;1.80;;;19.80;86.30;;;;;;10537146;28;20079;-69
2022/05/17 12:09:37;;;;;;;5.80;1.63;;;19.80;86.20;;;;;;10537072;28;20134;-60
2022/05/17 12:14:56;;;;;;;8.43;1.80;;;19.80;86.20;;;;;;10536598;28;20118;-61
2022/05/17 12:19:56;;;;;;;4.00;1.92;;;19.80;86.20;;;;;;10536505;28;20024;-65
2022/05/17 12:25:14;;;;;;;2.50;1.50;;;19.90;86.10;;;;;;10536241;28;20036;-64
2022/05/17 12:35:52;;;;;;;4.45;1.58;;;20.00;85.70;;;;;;10535747;28;20366;-63
2022/05/17 12:46:28;;;;;;;4.50;1.67;;;20.10;85.40;;;;;;10535930;28;20059;-63
2022/05/17 12:51:29;;;;;;;9.30;2.72;;;20.30;85.10;;;;;;10535354;28;20520;-72
2022/05/17 12:56:37;;;;;;;7.28;2.80;;;20.60;84.70;;;;;;10530101;28;20114;-74
2022/05/17 13:01:53;;;;;;;8.32;2.15;;;20.90;84.10;;;;;;10530526;28;20047;-63
2022/05/17 13:07:13;;;;;;;5.97;2.45;;;21.20;83.70;;;;;;10543391;28;20534;-72
2022/05/17 13:12:14;;;;;;;5.00;2.63;;;21.60;82.80;;;;;;10543348;28;20036;-70
2022/05/17 13:17:35;;;;;;;7.00;2.55;;;21.80;82.50;;;;;;10543271;28;20024;-73
2022/05/17 13:22:42;;;;;;;8.50;3.25;;;22.10;82.90;;;;;;10525275;28;20516;-68
2022/05/17 13:27:52;;;;;;;8.30;3.75;;;22.30;82.10;;;;;;10542584;28;20039;-65
2022/05/17 13:32:54;;;;;;;7.95;3.55;;;22.50;81.80;;;;;;10542535;28;20051;-66
2022/05/17 13:38:03;;;;;;;4.22;2.25;;;22.70;81.50;;;;;;10541975;28;20092;-60
2022/05/17 13:43:31;;;;;;;4.90;2.67;;;22.90;81.00;;;;;;10541315;28;20046;-66
2022/05/17 13:48:33;;;;;;;9.48;2.70;;;23.00;80.40;;;;;;10542224;28;20104;-76
2022/05/17 13:53:39;;;;;;;6.18;2.72;;;23.20;80.20;;;;;;10541846;28;20154;-73
2022/05/17 13:58:44;;;;;;;5.65;2.47;;;23.40;79.70;;;;;;10539234;28;20066;-76
2022/05/17 14:04:06;;;;;;;4.25;1.90;;;23.50;79.20;;;;;;10541937;28;20040;-77
2022/05/17 14:14:29;;;;;;;6.05;2.30;;;23.70;78.10;;;;;;10539648;28;20135;-60
2022/05/17 14:19:34;;;;;;;4.18;1.90;;;23.60;78.50;;;;;;10541139;28;20111;-81
2022/05/17 14:24:35;;;;;;;5.85;2.17;;;23.50;78.50;;;;;;10541064;28;20036;-76
2022/05/17 14:29:37;;;;;;;5.00;2.10;;;23.40;78.90;;;;;;10540625;28;20507;-70
2022/05/17 14:34:39;;;;;;;5.75;3.22;;;23.40;79.20;;;;;;10539543;28;20052;-63
2022/05/17 14:39:40;;;;;;;4.53;2.80;;;23.40;79.40;;;;;;10540139;28;20028;-75
2022/05/17 14:44:41;;;;;;;7.30;2.92;;;23.30;79.40;;;;;;10539927;28;20035;-75
2022/05/17 14:49:52;;;;;;;4.72;2.55;;;23.60;79.10;;;;;;10539658;28;20064;-61
2022/05/17 14:54:53;;;;;;;5.53;2.33;;;24.10;78.20;;;;;;10539383;28;20036;-62
2022/05/17 14:59:54;;;;;;;5.25;2.45;;;24.30;77.70;;;;;;10539208;28;20055;-65
2022/05/17 15:04:55;;;;;;;7.10;2.78;;;24.30;77.50;;;;;;10539289;28;20127;-65
2022/05/17 15:10:03;;;;;;;5.40;2.75;;;24.50;77.50;;;;;;10538970;28;20511;-66
2022/05/17 15:15:07;;;;;;;7.63;2.50;;;24.60;76.80;;;;;;10538829;28;20512;-59
2022/05/17 15:20:11;;;;;;;6.03;2.70;;;24.70;76.80;;;;;;10538154;28;20043;-72
2022/05/17 15:25:15;;;;;;;3.70;2.25;;;24.80;75.60;;;;;;10537678;28;20118;-63
2022/05/17 15:30:17;;;;;;;5.70;2.30;;;24.80;75.60;;;;;;10537802;28;20040;-61
2022/05/17 15:35:29;;;;;;;5.40;2.25;;;24.60;75.90;;;;;;10538004;28;20036;-67
2022/05/17 15:40:29;;;;;;;5.43;2.50;;;24.60;76.10;;;;;;10537470;28;20040;-77
2022/05/17 15:45:30;;;;;;;3.28;2.10;;;24.70;76.10;;;;;;10537359;28;20036;-67
2022/05/17 15:55:57;;;;;;;2.92;2.17;;;24.20;76.80;;;;;;10536894;28;20464;-73
2022/05/17 16:00:58;;;;;;;4.85;2.17;;;24.10;77.10;;;;;;10536615;28;20062;-68
2022/05/17 16:06:00;;;;;;;5.80;2.78;;;23.90;77.30;;;;;;10536803;28;20028;-65
2022/05/17 16:16:20;;;;;;;6.88;3.40;;;23.70;77.80;;;;;;10536799;28;20036;-69
2022/05/17 16:21:21;;;;;;;4.35;3.08;;;23.60;78.00;;;;;;10536485;28;20070;-67
2022/05/17 16:26:22;;;;;;;5.38;3.10;;;23.50;78.40;;;;;;10536292;28;20040;-67
2022/05/17 16:31:26;;;;;;;7.57;3.40;;;23.30;78.80;;;;;;10536065;28;20088;-64
2022/05/17 16:36:27;;;;;;;7.70;3.40;;;23.20;79.40;;;;;;10517423;28;20487;-69
2022/05/17 16:41:28;;;;;;;7.47;2.88;;;23.10;79.70;;;;;;10535847;28;20048;-61
2022/05/17 16:46:30;;;;;;;6.40;2.97;;;22.90;80.00;;;;;;10535736;28;20035;-60
2022/05/17 16:51:32;;;;;;;7.97;3.45;;;22.80;80.20;;;;;;10535419;28;20132;-68
2022/05/17 16:56:33;;;;;;;7.28;3.35;;;22.70;81.10;;;;;;10535127;28;20107;-62
2022/05/17 17:01:34;;;;;;;7.10;3.38;;;22.70;80.90;;;;;;10534925;28;20478;-71
2022/05/17 17:06:36;;;;;;;9.60;3.72;;;22.70;80.90;;;;;;10535603;28;20119;-72
2022/05/17 17:11:38;;;;;;;8.88;4.30;;;22.50;80.90;;;;;;10535354;28;20051;-61
2022/05/17 17:16:39;;;;;;;7.75;4.00;;;22.50;81.50;;;;;;10535161;28;20428;-66
2022/05/17 17:21:39;;;;;;;10.63;3.53;;;22.40;82.00;;;;;;10535097;28;20047;-61
2022/05/17 17:26:42;;;;;;;5.65;3.83;;;22.60;81.90;;;;;;10535418;28;20358;-70
2022/05/17 17:31:43;;;;;;;7.68;3.20;;;22.60;81.60;;;;;;10535323;28;20052;-61
2022/05/17 17:42:03;;;;;;;10.60;3.88;;;22.50;82.20;;;;;;10534919;28;20100;-73
2022/05/17 17:47:04;;;;;;;9.43;3.85;;;22.30;83.10;;;;;;10535828;28;20189;-70
2022/05/17 17:52:05;;;;;;;8.93;4.07;;;22.10;83.80;;;;;;10542273;28;20059;-69
2022/05/17 17:57:10;;;;;;;7.25;3.85;;;22.00;84.40;;;;;;10542042;28;20052;-68
2022/05/17 18:02:10;;;;;;;10.07;4.15;;;22.00;84.60;;;;;;10541511;28;20499;-62
2022/05/17 18:07:11;;;;;;;10.60;4.35;;;21.90;84.80;;;;;;10541251;28;20081;-69
2022/05/17 18:12:20;;;;;;;7.90;3.75;;;21.80;85.10;;;;;;10541096;28;20407;-60
2022/05/17 18:17:26;;;;;;;13.10;4.80;;;21.70;85.40;;;;;;10541140;28;20028;-61
2022/05/17 18:22:27;;;;;;;12.95;4.80;;;21.70;86.20;;;;;;10540570;28;20059;-59
2022/05/17 18:27:27;;;;;;;10.75;3.97;;;21.60;86.70;;;;;;10540451;28;20024;-60
2022/05/17 18:32:31;;;;;;;5.68;3.50;;;21.50;87.20;;;;;;10540286;28;20044;-60
2022/05/17 18:37:33;;;;;;;10.32;3.70;;;21.50;87.30;;;;;;10539874;28;20039;-60
2022/05/17 18:42:34;;;;;;;8.20;4.32;;;21.50;87.60;;;;;;10540205;28;20044;-59
2022/05/17 18:47:41;;;;;;;10.93;4.03;;;21.40;88.50;;;;;;10539771;28;20040;-59
2022/05/17 18:52:45;;;;;;;11.30;4.78;;;21.40;88.50;;;;;;10539455;28;20036;-58
2022/05/17 18:57:46;;;;;;;7.68;4.25;;;21.20;88.80;;;;;;10538799;28;20024;-58
2022/05/17 19:02:48;;;;;;;10.02;4.20;;;21.20;89.30;;;;;;10538346;28;20056;-58
2022/05/17 19:18:29;;;;;;;10.30;4.63;;;20.80;90.50;;;;;;10538550;28;20032;-57
2022/05/17 19:23:30;;;;;;;6.90;4.18;;;20.80;90.80;;;;;;10538258;28;20520;-67
2022/05/17 19:28:35;;;;;;;10.95;4.75;;;20.70;90.90;;;;;;10538248;28;20062;-60
2022/05/17 19:33:38;;;;;;;6.85;4.00;;;20.70;91.00;;;;;;10537708;28;20496;-62
2022/05/17 19:43:58;;;;;;;9.20;4.50;;;20.60;91.20;;;;;;10537731;28;20052;-70
2022/05/17 19:48:59;;;;;;;8.23;3.75;;;20.70;91.40;;;;;;10537063;28;20036;-59
2022/05/17 19:53:59;;;;;;;6.65;3.40;;;20.80;91.40;;;;;;10537004;28;20072;-60
2022/05/17 19:59:00;;;;;;;7.45;2.85;;;20.90;91.10;;;;;;10536772;28;20496;-57
2022/05/17 20:04:02;;;;;;;4.28;2.70;;;21.00;90.90;;;;;;10536690;28;20040;-67
2022/05/17 20:09:04;;;;;;;5.90;2.80;;;21.10;90.80;;;;;;10536373;28;20114;-62
2022/05/17 20:14:04;;;;;;;6.00;2.70;;;21.10;90.60;;;;;;10535319;28;20075;-64
2022/05/17 20:19:05;;;;;;;3.45;2.15;;;21.20;90.50;;;;;;10536062;28;20086;-56
2022/05/17 20:24:08;;;;;;;2.95;2.10;;;21.20;90.40;;;;;;10535985;28;20119;-59
2022/05/17 20:29:08;;;;;;;5.65;2.20;;;21.20;90.30;;;;;;10535843;28;20032;-56
2022/05/17 20:34:10;;;;;;;4.65;2.40;;;21.20;90.30;;;;;;10535772;28;20135;-57
2022/05/17 20:39:16;;;;;;;4.28;2.42;;;21.20;90.20;;;;;;10535887;28;20074;-63
2022/05/17 20:44:18;;;;;;;9.68;4.03;;;21.20;90.30;;;;;;10535348;28;20063;-61
2022/05/17 20:49:19;;;;;;;9.93;2.53;;;21.10;90.30;;;;;;10535368;28;20065;-58
2022/05/17 20:54:20;;;;;;;4.43;2.60;;;21.00;90.50;;;;;;10535293;28;20072;-70
2022/05/17 20:59:22;;;;;;;7.97;2.70;;;21.00;90.50;;;;;;10535142;28;20075;-69
2022/05/17 21:04:23;;;;;;;6.18;2.60;;;21.00;90.40;;;;;;10535278;28;20068;-58
2022/05/17 21:09:24;;;;;;;5.18;2.50;;;21.00;90.40;;;;;;10535278;28;20032;-57
2022/05/17 21:14:25;;;;;;;4.18;2.22;;;21.00;90.30;;;;;;10534891;28;20040;-57
2022/05/17 21:19:29;;;;;;;2.40;2.10;;;21.00;90.30;;;;;;10535474;28;20141;-60
2022/05/17 21:24:30;;;;;;;4.25;1.98;;;21.00;90.30;;;;;;10540266;28;20089;-69
2022/05/17 21:29:35;;;;;;;5.40;2.33;;;21.00;90.20;;;;;;10543154;28;20361;-60
2022/05/17 21:34:36;;;;;;;3.58;2.10;;;21.00;90.20;;;;;;10542751;28;20506;-63
2022/05/17 21:39:40;;;;;;;4.57;2.22;;;21.00;90.20;;;;;;10542517;28;20032;-68
2022/05/17 21:44:41;;;;;;;4.50;2.17;;;21.00;90.20;;;;;;10542478;28;20550;-71
2022/05/17 21:49:42;;;;;;;2.05;1.85;;;20.90;90.10;;;;;;10541851;28;20035;-61
2022/05/17 21:54:43;;;;;;;5.53;2.13;;;20.90;90.10;;;;;;10541936;28;20048;-57
2022/05/17 21:59:43;;;;;;;4.13;1.90;;;20.90;90.10;;;;;;10541676;28;20048;-70
2022/05/17 22:04:44;;;;;;;4.32;2.45;;;20.90;90.10;;;;;;10541790;28;20047;-71
2022/05/17 22:09:45;;;;;;;2.35;2.10;;;20.90;90.10;;;;;;10541606;28;20036;-57
2022/05/17 22:14:45;;;;;;;2.80;2.00;;;20.80;90.10;;;;;;10540830;28;20490;-70
2022/05/17 22:19:47;;;;;;;3.03;2.00;;;20.80;90.10;;;;;;10541181;28;20047;-57
2022/05/17 22:24:47;;;;;;;4.63;2.08;;;20.80;90.10;;;;;;10540694;28;20043;-62
2022/05/17 22:29:48;;;;;;;4.82;2.28;;;20.80;90.10;;;;;;10540704;28;20587;-57
2022/05/17 22:34:49;;;;;;;3.05;2.30;;;20.70;90.10;;;;;;10539521;28;20051;-61
2022/05/17 22:39:49;;;;;;;5.10;2.20;;;20.70;90.00;;;;;;10540535;28;20044;-70
2022/05/17 22:50:09;;;;;;;2.50;1.70;;;20.70;90.10;;;;;;10539713;28;20032;-67
2022/05/17 22:55:11;;;;;;;2.90;2.35;;;20.70;90.10;;;;;;10539662;28;20497;-69
2022/05/17 23:00:12;;;;;;;2.95;2.03;;;20.60;90.00;;;;;;10539268;28;20524;-57
2022/05/17 23:05:12;;;;;;;4.47;1.98;;;20.60;90.00;;;;;;10539108;28;20036;-57
2022/05/17 23:10:13;;;;;;;2.80;2.10;;;20.60;90.00;;;;;;10538885;28;20044;-59
2022/05/17 23:15:14;;;;;;;4.50;2.20;;;20.60;90.00;;;;;;10539286;28;20040;-57
2022/05/17 23:20:17;;;;;;;3.97;2.42;;;20.50;90.00;;;;;;10538360;28;20028;-57
2022/05/17 23:30:43;;;;;;;5.15;2.22;;;20.50;90.00;;;;;;10538440;28;20043;-57
2022/05/17 23:35:44;;;;;;;3.92;2.17;;;20.50;90.00;;;;;;10538294;28;20032;-60
2022/05/17 23:40:45;;;;;;;2.63;2.13;;;20.50;90.00;;;;;;10537785;28;20032;-60
2022/05/17 23:45:46;;;;;;;4.68;2.40;;;20.40;90.00;;;;;;10537425;28;20086;-57
2022/05/17 23:50:47;;;;;;;4.63;2.05;;;20.40;90.00;;;;;;10537495;28;20063;-56
2022/05/17 23:55:48;;;;;;;3.28;2.08;;;20.40;90.00;;;;;;10537550;28;20044;-57
